createdAt,value
2022-09-09T00:00:55.917Z,79.90
2022-09-09T00:01:56.127Z,79.80
2022-09-09T00:02:56.351Z,79.69
2022-09-09T00:03:56.457Z,79.69
2022-09-09T00:04:56.616Z,79.69
2022-09-09T00:05:56.778Z,79.80
2022-09-09T00:06:56.926Z,79.60
2022-09-09T00:07:57.146Z,79.49
2022-09-09T00:08:57.304Z,79.60
2022-09-09T00:09:57.467Z,79.60
2022-09-09T00:10:57.627Z,79.60
2022-09-09T00:11:57.788Z,79.43
2022-09-09T00:12:58.056Z,79.63
2022-09-09T00:13:58.126Z,79.63
2022-09-09T00:14:58.287Z,79.73
2022-09-09T00:15:58.499Z,79.63
2022-09-09T00:16:58.620Z,79.63
2022-09-09T00:17:58.807Z,79.73
2022-09-09T00:18:58.968Z,79.63
2022-09-09T00:19:59.141Z,79.73
2022-09-09T00:20:59.310Z,79.73
2022-09-09T00:21:59.464Z,79.73
2022-09-09T00:22:59.651Z,79.73
2022-09-09T00:23:59.814Z,79.83
2022-09-09T00:24:59.980Z,80.13
2022-09-09T00:26:00.140Z,79.93
2022-09-09T00:27:00.303Z,80.13
2022-09-09T00:28:00.478Z,80.13
2022-09-09T00:29:00.637Z,80.04
2022-09-09T00:30:00.835Z,80.13
2022-09-09T00:31:01.004Z,80.24
2022-09-09T00:32:01.157Z,80.04
2022-09-09T00:33:01.337Z,80.13
2022-09-09T00:34:01.498Z,80.24
2022-09-09T00:35:01.658Z,80.04
2022-09-09T00:36:01.823Z,79.93
2022-09-09T00:37:01.978Z,80.13
2022-09-09T00:38:02.157Z,80.18
2022-09-09T00:39:02.327Z,80.04
2022-09-09T00:40:02.527Z,79.97
2022-09-09T00:41:02.658Z,79.97
2022-09-09T00:42:02.866Z,79.97
2022-09-09T00:43:03.047Z,80.07
2022-09-09T00:44:03.211Z,80.07
2022-09-09T00:45:03.368Z,80.07
2022-09-09T00:46:03.575Z,79.97
2022-09-09T00:47:03.718Z,79.87
2022-09-09T00:48:03.906Z,79.87
2022-09-09T00:49:04.058Z,79.97
2022-09-09T00:50:04.248Z,80.07
2022-09-09T00:51:04.407Z,79.97
2022-09-09T00:52:04.608Z,79.87
2022-09-09T00:53:04.807Z,80.18
2022-09-09T00:54:04.929Z,80.07
2022-09-09T00:55:05.096Z,80.07
2022-09-09T00:56:05.258Z,80.38
2022-09-09T00:57:05.418Z,80.27
2022-09-09T00:58:05.607Z,79.87
2022-09-09T00:59:05.738Z,79.67
2022-09-09T01:00:05.898Z,79.97
2022-09-09T01:01:06.107Z,80.18
2022-09-09T01:02:06.264Z,79.97
2022-09-09T01:03:06.429Z,80.07
2022-09-09T01:04:06.602Z,79.97
2022-09-09T01:05:06.748Z,80.07
2022-09-09T01:06:06.940Z,80.18
2022-09-09T01:07:07.120Z,80.27
2022-09-09T01:08:07.288Z,80.27
2022-09-09T01:09:07.450Z,80.27
2022-09-09T01:10:07.608Z,80.41
2022-09-09T01:11:07.786Z,80.31
2022-09-09T01:12:07.949Z,80.21
2022-09-09T01:13:08.136Z,80.21
2022-09-09T01:14:08.299Z,80.31
2022-09-09T01:15:08.468Z,80.51
2022-09-09T01:16:08.629Z,80.62
2022-09-09T01:17:08.791Z,80.41
2022-09-09T01:18:08.985Z,80.31
2022-09-09T01:19:09.118Z,80.31
2022-09-09T01:20:09.281Z,80.21
2022-09-09T01:21:09.468Z,80.21
2022-09-09T01:22:09.628Z,80.01
2022-09-09T01:23:09.830Z,79.91
2022-09-09T01:24:09.949Z,80.31
2022-09-09T01:25:10.148Z,80.31
2022-09-09T01:26:10.327Z,80.21
2022-09-09T01:27:10.469Z,80.11
2022-09-09T01:28:10.654Z,80.11
2022-09-09T01:29:10.809Z,79.91
2022-09-09T01:30:10.987Z,80.01
2022-09-09T01:31:11.291Z,80.31
2022-09-09T01:32:11.329Z,80.11
2022-09-09T01:33:11.521Z,80.41
2022-09-09T01:34:11.671Z,80.11
2022-09-09T01:35:11.837Z,80.01
2022-09-09T01:36:11.988Z,80.01
2022-09-09T01:37:12.188Z,80.11
2022-09-09T01:38:12.369Z,80.31
2022-09-09T01:39:12.510Z,80.21
2022-09-09T01:40:12.725Z,80.21
2022-09-09T01:41:12.859Z,80.01
2022-09-09T01:42:13.017Z,80.11
2022-09-09T01:43:13.209Z,80.11
2022-09-09T01:44:13.329Z,80.11
2022-09-09T01:45:13.529Z,80.01
2022-09-09T01:46:13.710Z,79.91
2022-09-09T01:47:13.859Z,79.81
2022-09-09T01:48:14.039Z,79.91
2022-09-09T01:49:14.200Z,80.01
2022-09-09T01:50:14.390Z,80.11
2022-09-09T01:51:14.549Z,80.11
2022-09-09T01:52:14.718Z,79.81
2022-09-09T01:53:14.899Z,79.81
2022-09-09T01:54:15.049Z,80.05
2022-09-09T01:55:15.249Z,79.94
2022-09-09T01:56:15.399Z,80.15
2022-09-09T01:57:15.608Z,79.85
2022-09-09T01:58:15.779Z,79.74
2022-09-09T01:59:15.939Z,79.85
2022-09-09T02:00:16.109Z,79.74
2022-09-09T02:01:16.367Z,79.74
2022-09-09T02:02:16.486Z,79.85
2022-09-09T02:03:17.151Z,79.74
2022-09-09T02:04:16.821Z,79.64
2022-09-09T02:05:16.970Z,79.64
2022-09-09T02:06:17.161Z,79.74
2022-09-09T02:07:17.319Z,79.64
2022-09-09T02:08:17.499Z,79.85
2022-09-09T02:09:17.683Z,79.85
2022-09-09T02:10:17.829Z,80.05
2022-09-09T02:11:18.030Z,79.94
2022-09-09T02:12:18.213Z,80.15
2022-09-09T02:13:18.381Z,80.35
2022-09-09T02:14:18.549Z,80.15
2022-09-09T02:15:18.713Z,79.94
2022-09-09T02:16:18.911Z,79.85
2022-09-09T02:17:19.067Z,79.74
2022-09-09T02:18:19.230Z,79.74
2022-09-09T02:19:19.420Z,79.74
2022-09-09T02:20:19.584Z,79.74
2022-09-09T02:21:19.740Z,79.85
2022-09-09T02:22:19.910Z,79.94
2022-09-09T02:23:20.165Z,80.05
2022-09-09T02:24:20.255Z,79.94
2022-09-09T02:25:20.410Z,79.85
2022-09-09T02:26:20.616Z,79.74
2022-09-09T02:27:20.760Z,79.74
2022-09-09T02:28:20.920Z,79.64
2022-09-09T02:29:21.080Z,79.74
2022-09-09T02:30:21.363Z,79.64
2022-09-09T02:31:21.423Z,79.64
2022-09-09T02:32:21.559Z,79.64
2022-09-09T02:33:21.749Z,79.64
2022-09-09T02:34:21.909Z,79.64
2022-09-09T02:35:22.078Z,79.64
2022-09-09T02:36:22.230Z,79.64
2022-09-09T02:37:22.399Z,79.85
2022-09-09T02:38:22.571Z,79.94
2022-09-09T02:39:22.738Z,79.74
2022-09-09T02:40:22.900Z,79.64
2022-09-09T02:41:23.060Z,79.34
2022-09-09T02:42:23.216Z,79.54
2022-09-09T02:43:23.431Z,79.94
2022-09-09T02:44:23.581Z,79.85
2022-09-09T02:45:23.751Z,79.94
2022-09-09T02:46:23.936Z,80.15
2022-09-09T02:47:24.070Z,79.85
2022-09-09T02:48:24.281Z,79.74
2022-09-09T02:49:24.482Z,79.85
2022-09-09T02:50:24.624Z,79.85
2022-09-09T02:51:24.771Z,79.74
2022-09-09T02:52:24.941Z,79.64
2022-09-09T02:53:25.153Z,79.74
2022-09-09T02:54:25.310Z,79.74
2022-09-09T02:55:25.473Z,79.85
2022-09-09T02:56:25.630Z,79.74
2022-09-09T02:57:25.820Z,79.64
2022-09-09T02:58:25.991Z,79.64
2022-09-09T02:59:26.140Z,79.64
2022-09-09T03:00:26.308Z,79.54
2022-09-09T03:01:26.528Z,79.38
2022-09-09T03:02:26.705Z,79.68
2022-09-09T03:03:26.841Z,79.79
2022-09-09T03:04:26.991Z,79.68
2022-09-09T03:05:27.162Z,79.68
2022-09-09T03:06:27.311Z,79.58
2022-09-09T03:07:27.482Z,79.58
2022-09-09T03:08:27.662Z,79.68
2022-09-09T03:09:27.831Z,79.58
2022-09-09T03:10:27.998Z,79.48
2022-09-09T03:11:28.159Z,79.58
2022-09-09T03:12:28.320Z,79.58
2022-09-09T03:13:28.500Z,79.68
2022-09-09T03:14:28.663Z,79.58
2022-09-09T03:15:28.861Z,79.48
2022-09-09T03:16:29.045Z,79.58
2022-09-09T03:17:29.199Z,79.58
2022-09-09T03:18:29.460Z,79.48
2022-09-09T03:19:29.532Z,79.58
2022-09-09T03:20:29.691Z,79.38
2022-09-09T03:21:29.869Z,79.17
2022-09-09T03:22:30.023Z,79.48
2022-09-09T03:23:30.201Z,79.38
2022-09-09T03:24:30.367Z,79.48
2022-09-09T03:25:30.528Z,79.38
2022-09-09T03:26:30.701Z,79.38
2022-09-09T03:27:30.861Z,79.17
2022-09-09T03:28:31.041Z,79.48
2022-09-09T03:29:31.210Z,79.38
2022-09-09T03:30:31.361Z,79.28
2022-09-09T03:31:31.654Z,79.28
2022-09-09T03:32:31.692Z,79.38
2022-09-09T03:33:31.891Z,79.28
2022-09-09T03:34:32.060Z,79.17
2022-09-09T03:35:32.223Z,79.17
2022-09-09T03:36:32.382Z,79.48
2022-09-09T03:37:32.551Z,79.58
2022-09-09T03:38:32.750Z,79.38
2022-09-09T03:39:32.965Z,79.48
2022-09-09T03:40:33.061Z,79.48
2022-09-09T03:41:33.223Z,79.28
2022-09-09T03:42:33.393Z,79.62
2022-09-09T03:43:33.562Z,79.92
2022-09-09T03:44:33.721Z,80.02
2022-09-09T03:45:33.978Z,79.82
2022-09-09T03:46:34.101Z,79.82
2022-09-09T03:47:34.263Z,79.72
2022-09-09T03:48:34.503Z,79.72
2022-09-09T03:49:34.611Z,79.72
2022-09-09T03:50:34.776Z,79.82
2022-09-09T03:51:34.932Z,79.72
2022-09-09T03:52:35.095Z,79.72
2022-09-09T03:53:35.275Z,79.68
2022-09-09T03:54:35.433Z,79.48
2022-09-09T03:55:35.593Z,79.68
2022-09-09T03:56:35.751Z,79.62
2022-09-09T03:57:35.975Z,79.58
2022-09-09T03:58:36.154Z,79.52
2022-09-09T03:59:36.293Z,79.58
2022-09-09T04:00:36.443Z,79.48
2022-09-09T04:01:36.642Z,79.48
2022-09-09T04:02:36.841Z,79.41
2022-09-09T04:03:37.012Z,79.41
2022-09-09T04:04:37.172Z,79.52
2022-09-09T04:05:37.370Z,79.52
2022-09-09T04:06:37.536Z,79.52
2022-09-09T04:07:37.692Z,79.52
2022-09-09T04:08:38.044Z,79.38
2022-09-09T04:09:38.032Z,79.48
2022-09-09T04:10:38.205Z,79.32
2022-09-09T04:11:38.361Z,79.28
2022-09-09T04:12:38.561Z,79.21
2022-09-09T04:13:38.754Z,79.41
2022-09-09T04:14:38.892Z,79.21
2022-09-09T04:15:39.078Z,79.11
2022-09-09T04:16:39.280Z,79.01
2022-09-09T04:17:39.454Z,79.08
2022-09-09T04:18:39.663Z,78.91
2022-09-09T04:19:39.820Z,78.77
2022-09-09T04:20:39.992Z,78.81
2022-09-09T04:21:40.172Z,78.91
2022-09-09T04:22:40.352Z,78.91
2022-09-09T04:23:40.562Z,79.01
2022-09-09T04:24:40.702Z,79.11
2022-09-09T04:25:40.897Z,78.81
2022-09-09T04:26:41.063Z,78.97
2022-09-09T04:27:41.210Z,78.91
2022-09-09T04:28:41.381Z,78.91
2022-09-09T04:29:41.522Z,78.77
2022-09-09T04:30:41.714Z,78.88
2022-09-09T04:31:41.934Z,78.88
2022-09-09T04:32:42.111Z,78.67
2022-09-09T04:33:42.272Z,78.77
2022-09-09T04:34:42.415Z,78.67
2022-09-09T04:35:42.592Z,78.67
2022-09-09T04:36:42.756Z,78.57
2022-09-09T04:37:42.939Z,78.47
2022-09-09T04:38:43.102Z,78.47
2022-09-09T04:39:43.302Z,78.37
2022-09-09T04:40:43.412Z,78.27
2022-09-09T04:41:43.605Z,78.27
2022-09-09T04:42:43.752Z,78.47
2022-09-09T04:43:43.943Z,78.37
2022-09-09T04:44:44.083Z,78.37
2022-09-09T04:45:44.338Z,78.27
2022-09-09T04:46:44.442Z,78.37
2022-09-09T04:47:44.713Z,78.37
2022-09-09T04:48:44.783Z,78.47
2022-09-09T04:49:44.933Z,78.47
2022-09-09T04:50:45.113Z,78.47
2022-09-09T04:51:45.334Z,78.43
2022-09-09T04:52:45.474Z,78.33
2022-09-09T04:53:45.690Z,78.23
2022-09-09T04:54:45.854Z,78.23
2022-09-09T04:55:46.014Z,78.13
2022-09-09T04:56:46.173Z,78.23
2022-09-09T04:57:46.333Z,78.03
2022-09-09T04:58:46.511Z,77.83
2022-09-09T04:59:46.673Z,77.73
2022-09-09T05:00:46.921Z,77.59
2022-09-09T05:01:47.085Z,77.89
2022-09-09T05:02:47.213Z,77.79
2022-09-09T05:03:47.416Z,77.69
2022-09-09T05:04:47.557Z,77.69
2022-09-09T05:05:47.742Z,77.49
2022-09-09T05:06:47.923Z,77.59
2022-09-09T05:07:48.123Z,77.59
2022-09-09T05:08:48.283Z,77.45
2022-09-09T05:09:48.453Z,77.25
2022-09-09T05:10:48.633Z,77.15
2022-09-09T05:11:48.825Z,76.64
2022-09-09T05:12:49.003Z,76.84
2022-09-09T05:13:49.203Z,76.81
2022-09-09T05:14:49.344Z,76.61
2022-09-09T05:15:49.523Z,76.20
2022-09-09T05:16:49.704Z,76.51
2022-09-09T05:17:49.889Z,76.51
2022-09-09T05:18:50.093Z,76.20
2022-09-09T05:19:50.233Z,76.40
2022-09-09T05:20:50.414Z,76.40
2022-09-09T05:21:50.593Z,76.17
2022-09-09T05:22:50.774Z,76.37
2022-09-09T05:23:50.974Z,75.56
2022-09-09T05:24:51.153Z,76.07
2022-09-09T05:25:51.314Z,75.67
2022-09-09T05:26:51.463Z,75.87
2022-09-09T05:27:51.655Z,76.07
2022-09-09T05:28:51.863Z,75.46
2022-09-09T05:29:51.994Z,75.16
2022-09-09T05:30:52.184Z,75.16
2022-09-09T05:31:52.450Z,75.76
2022-09-09T05:32:52.534Z,75.76
2022-09-09T05:33:52.743Z,75.36
2022-09-09T05:34:52.884Z,74.76
2022-09-09T05:35:53.065Z,74.86
2022-09-09T05:36:53.255Z,75.06
2022-09-09T05:37:53.424Z,75.76
2022-09-09T05:38:53.626Z,75.76
2022-09-09T05:39:53.858Z,75.06
2022-09-09T05:40:53.974Z,75.06
2022-09-09T05:41:54.154Z,75.67
2022-09-09T05:42:54.344Z,74.46
2022-09-09T05:43:54.525Z,75.26
2022-09-09T05:44:54.715Z,75.56
2022-09-09T05:45:54.894Z,75.46
2022-09-09T05:46:55.137Z,75.46
2022-09-09T05:47:55.298Z,75.36
2022-09-09T05:48:55.435Z,74.93
2022-09-09T05:49:55.624Z,75.23
2022-09-09T05:50:55.804Z,75.53
2022-09-09T05:51:55.984Z,75.23
2022-09-09T05:52:56.165Z,74.82
2022-09-09T05:53:56.364Z,74.73
2022-09-09T05:54:56.514Z,75.13
2022-09-09T05:55:56.755Z,75.13
2022-09-09T05:56:56.866Z,75.33
2022-09-09T05:57:57.052Z,74.38
2022-09-09T05:58:57.355Z,74.52
2022-09-09T05:59:57.443Z,74.32
2022-09-09T06:00:57.565Z,74.52
2022-09-09T06:01:57.922Z,75.19
2022-09-09T06:02:58.030Z,74.38
2022-09-09T06:03:58.114Z,74.58
2022-09-09T06:05:00.635Z,74.79
2022-09-09T06:05:58.454Z,73.68
2022-09-09T06:06:58.705Z,74.58
2022-09-09T06:07:58.825Z,75.09
2022-09-09T06:08:58.995Z,74.69
2022-09-09T06:09:59.135Z,73.88
2022-09-09T06:10:59.364Z,74.18
2022-09-09T06:11:59.484Z,74.89
2022-09-09T06:12:59.683Z,75.15
2022-09-09T06:13:59.855Z,74.75
2022-09-09T06:14:59.995Z,74.85
2022-09-09T06:16:00.210Z,74.85
2022-09-09T06:17:00.368Z,74.32
2022-09-09T06:18:00.546Z,73.81
2022-09-09T06:19:00.745Z,73.91
2022-09-09T06:20:00.922Z,73.31
2022-09-09T06:21:01.123Z,73.11
2022-09-09T06:22:01.265Z,72.30
2022-09-09T06:23:01.445Z,73.21
2022-09-09T06:24:01.854Z,74.01
2022-09-09T06:25:01.806Z,73.41
2022-09-09T06:26:02.949Z,73.38
2022-09-09T06:27:02.176Z,72.67
2022-09-09T06:28:02.345Z,73.07
2022-09-09T06:29:02.548Z,73.58
2022-09-09T06:30:02.739Z,73.64
2022-09-09T06:31:02.933Z,73.14
2022-09-09T06:32:03.103Z,72.33
2022-09-09T06:33:03.225Z,72.00
2022-09-09T06:34:03.446Z,72.40
2022-09-09T06:35:03.586Z,72.40
2022-09-09T06:36:03.787Z,72.37
2022-09-09T06:37:03.967Z,72.17
2022-09-09T06:38:04.147Z,72.87
2022-09-09T06:39:04.348Z,71.93
2022-09-09T06:40:04.573Z,71.93
2022-09-09T06:41:04.676Z,72.13
2022-09-09T06:42:04.857Z,71.63
2022-09-09T06:43:05.045Z,70.83
2022-09-09T06:44:05.235Z,71.59
2022-09-09T06:45:05.396Z,69.89
2022-09-09T06:46:05.566Z,70.09
2022-09-09T06:47:05.820Z,70.29
2022-09-09T06:48:05.944Z,69.79
2022-09-09T06:49:06.137Z,69.86
2022-09-09T06:50:06.312Z,69.86
2022-09-09T06:51:06.499Z,68.65
2022-09-09T06:52:06.676Z,68.15
2022-09-09T06:53:06.848Z,67.35
2022-09-09T06:54:07.123Z,68.26
2022-09-09T06:55:07.197Z,69.06
2022-09-09T06:56:07.387Z,68.85
2022-09-09T06:57:20.926Z,68.05
2022-09-09T06:58:08.727Z,68.02
2022-09-09T06:59:07.967Z,68.32
2022-09-09T07:00:08.105Z,67.82
2022-09-09T07:01:08.336Z,66.89
2022-09-09T07:02:08.495Z,66.99
2022-09-09T07:03:08.628Z,66.86
2022-09-09T07:04:08.875Z,66.46
2022-09-09T07:05:08.977Z,66.02
2022-09-09T07:06:09.158Z,65.59
2022-09-09T07:07:09.351Z,64.59
2022-09-09T07:08:09.509Z,64.66
2022-09-09T07:09:09.718Z,64.56
2022-09-09T07:10:09.858Z,64.53
2022-09-09T07:11:12.468Z,62.63
2022-09-09T07:12:10.217Z,64.10
2022-09-09T07:13:10.417Z,63.80
2022-09-09T07:14:10.558Z,64.27
2022-09-09T07:15:10.757Z,63.77
2022-09-09T07:16:10.954Z,62.77
2022-09-09T07:17:11.100Z,62.45
2022-09-09T07:18:11.281Z,62.15
2022-09-09T07:19:11.432Z,62.15
2022-09-09T07:20:11.609Z,62.45
2022-09-09T07:21:11.806Z,62.34
2022-09-09T07:22:11.969Z,61.85
2022-09-09T07:23:12.169Z,61.85
2022-09-09T07:24:13.792Z,61.94
2022-09-09T07:25:12.530Z,62.04
2022-09-09T07:26:12.699Z,61.44
2022-09-09T07:27:12.882Z,61.82
2022-09-09T07:28:13.120Z,61.52
2022-09-09T07:29:16.077Z,62.12
2022-09-09T07:30:20.920Z,62.21
2022-09-09T07:31:14.622Z,62.08
2022-09-09T07:32:13.730Z,61.09
2022-09-09T07:33:13.940Z,61.49
2022-09-09T07:34:14.094Z,61.49
2022-09-09T07:35:14.251Z,61.29
2022-09-09T07:36:14.420Z,62.55
2022-09-09T07:37:14.608Z,62.65
2022-09-09T07:38:14.793Z,62.95
2022-09-09T07:39:14.970Z,61.03
2022-09-09T07:40:15.158Z,61.93
2022-09-09T07:41:15.291Z,60.53
2022-09-09T07:42:15.461Z,60.21
2022-09-09T07:43:17.435Z,60.50
2022-09-09T07:44:15.810Z,59.78
2022-09-09T07:45:15.972Z,58.78
2022-09-09T07:46:16.216Z,58.65
2022-09-09T07:47:16.332Z,57.96
2022-09-09T07:48:16.512Z,57.83
2022-09-09T07:49:16.683Z,57.53
2022-09-09T07:50:16.862Z,57.21
2022-09-09T07:51:17.040Z,56.19
2022-09-09T07:52:19.574Z,55.79
2022-09-09T07:53:17.395Z,55.47
2022-09-09T07:54:17.577Z,55.27
2022-09-09T07:55:17.752Z,53.88
2022-09-09T07:56:17.912Z,54.87
2022-09-09T07:57:19.551Z,56.13
2022-09-09T07:58:18.283Z,55.94
2022-09-09T07:59:18.443Z,57.53
2022-09-09T08:00:18.594Z,55.04
2022-09-09T08:01:18.825Z,55.04
2022-09-09T08:02:18.955Z,55.11
2022-09-09T08:03:19.166Z,53.92
2022-09-09T08:04:19.264Z,53.92
2022-09-09T08:05:19.446Z,53.36
2022-09-09T08:06:19.616Z,54.55
2022-09-09T08:07:19.818Z,54.42
2022-09-09T08:08:19.945Z,54.89
2022-09-09T08:09:20.135Z,52.71
2022-09-09T08:10:20.389Z,53.85
2022-09-09T08:11:20.495Z,53.63
2022-09-09T08:12:20.666Z,53.50
2022-09-09T08:13:20.845Z,53.60
2022-09-09T08:14:21.016Z,54.29
2022-09-09T08:15:21.206Z,53.00
2022-09-09T08:16:21.399Z,53.42
2022-09-09T08:17:21.588Z,50.48
2022-09-09T08:18:21.716Z,51.79
2022-09-09T08:19:21.883Z,53.67
2022-09-09T08:20:22.047Z,53.38
2022-09-09T08:21:22.227Z,54.27
2022-09-09T08:22:22.387Z,53.25
2022-09-09T08:23:22.557Z,53.42
2022-09-09T08:24:22.717Z,52.51
2022-09-09T08:25:22.888Z,52.81
2022-09-09T08:26:23.059Z,50.21
2022-09-09T08:27:23.238Z,50.90
2022-09-09T08:28:23.417Z,51.50
2022-09-09T08:29:23.614Z,51.67
2022-09-09T08:30:23.789Z,51.25
2022-09-09T08:32:24.192Z,51.42
2022-09-09T08:33:24.350Z,49.84
2022-09-09T08:34:24.518Z,50.46
2022-09-09T08:35:24.690Z,50.68
2022-09-09T08:36:24.861Z,50.19
2022-09-09T08:37:25.044Z,49.82
2022-09-09T08:38:25.199Z,50.83
2022-09-09T08:39:25.369Z,52.51
2022-09-09T08:40:25.546Z,51.42
2022-09-09T08:41:25.711Z,51.05
2022-09-09T08:42:25.902Z,51.65
2022-09-09T08:43:26.060Z,51.87
2022-09-09T08:44:26.231Z,53.06
2022-09-09T08:45:26.402Z,53.18
2022-09-09T08:46:26.663Z,52.69
2022-09-09T08:47:30.522Z,54.27
2022-09-09T08:48:27.906Z,53.78
2022-09-09T08:49:27.076Z,54.57
2022-09-09T08:50:27.233Z,55.76
2022-09-09T08:51:27.411Z,55.06
2022-09-09T08:52:27.624Z,54.67
2022-09-09T08:53:27.771Z,54.84
2022-09-09T08:54:50.632Z,54.22
2022-09-09T08:55:29.079Z,53.82
2022-09-09T08:56:28.235Z,54.19
2022-09-09T08:57:28.439Z,50.93
2022-09-09T08:58:28.563Z,51.42
2022-09-09T08:59:28.762Z,51.13
2022-09-09T09:00:28.884Z,52.41
2022-09-09T09:01:29.122Z,51.82
2022-09-09T09:02:29.225Z,51.89
2022-09-09T09:03:29.404Z,52.36
2022-09-09T09:04:29.630Z,50.95
2022-09-09T09:05:29.753Z,49.65
2022-09-09T09:06:29.944Z,48.93
2022-09-09T09:07:32.832Z,48.29
2022-09-09T09:08:30.305Z,48.42
2022-09-09T09:09:30.496Z,47.83
2022-09-09T09:10:41.680Z,46.94
2022-09-09T09:11:31.881Z,42.91
2022-09-09T09:12:31.035Z,40.76
2022-09-09T09:13:31.213Z,38.34
2022-09-09T09:14:31.483Z,36.04
2022-09-09T09:15:32.699Z,34.06
2022-09-09T09:16:31.739Z,35.09
2022-09-09T09:17:31.938Z,34.67
2022-09-09T09:18:32.106Z,34.27
2022-09-09T09:19:32.287Z,33.28
2022-09-09T09:20:32.459Z,33.75
2022-09-09T09:21:32.638Z,33.75
2022-09-09T09:22:32.828Z,32.97
2022-09-09T09:23:32.968Z,33.55
2022-09-09T09:24:33.139Z,32.68
2022-09-09T09:25:33.331Z,32.20
2022-09-09T09:26:33.541Z,33.34
2022-09-09T09:27:33.721Z,31.59
2022-09-09T09:28:33.937Z,31.27
2022-09-09T09:29:38.751Z,30.22
2022-09-09T09:30:35.220Z,30.21
2022-09-09T09:31:34.410Z,30.96
2022-09-09T09:32:34.600Z,30.35
2022-09-09T09:33:34.741Z,29.27
2022-09-09T09:34:34.931Z,28.95
2022-09-09T09:35:40.020Z,27.59
2022-09-09T09:36:36.274Z,26.72
2022-09-09T09:37:35.929Z,27.09
2022-09-09T09:40:36.992Z,27.02
2022-09-09T09:41:36.181Z,27.12
2022-09-09T09:42:36.373Z,26.92
2022-09-09T09:43:36.624Z,26.61
2022-09-09T09:44:36.703Z,26.70
2022-09-09T09:45:36.878Z,26.49
2022-09-09T09:46:37.106Z,26.20
2022-09-09T09:47:37.255Z,26.10
2022-09-09T09:48:37.435Z,26.51
2022-09-09T09:49:37.605Z,26.16
2022-09-09T09:50:37.785Z,27.61
2022-09-09T09:51:37.955Z,27.13
2022-09-09T09:52:38.146Z,27.42
2022-09-09T09:53:38.349Z,27.62
2022-09-09T09:54:38.477Z,27.66
2022-09-09T09:55:38.637Z,28.28
2022-09-09T09:56:38.846Z,28.89
2022-09-09T09:57:39.086Z,30.10
2022-09-09T09:58:39.212Z,30.79
2022-09-09T09:59:40.294Z,30.24
2022-09-09T10:00:39.537Z,30.85
2022-09-09T10:01:39.782Z,32.34
2022-09-09T10:02:39.918Z,32.28
2022-09-09T10:03:40.059Z,34.63
2022-09-09T10:04:40.300Z,34.25
2022-09-09T10:05:40.401Z,34.37
2022-09-09T10:06:40.589Z,34.00
2022-09-09T10:07:40.778Z,34.69
2022-09-09T10:08:40.951Z,36.10
2022-09-09T10:09:41.111Z,35.43
2022-09-09T10:10:44.973Z,36.33
2022-09-09T10:11:42.485Z,37.32
2022-09-09T10:12:41.697Z,38.22
2022-09-09T10:13:41.840Z,38.71
2022-09-09T10:14:42.011Z,38.82
2022-09-09T10:15:42.179Z,39.14
2022-09-09T10:16:42.352Z,39.54
2022-09-09T10:17:42.546Z,38.68
2022-09-09T10:18:42.734Z,38.51
2022-09-09T10:19:42.872Z,39.11
2022-09-09T10:20:43.060Z,39.82
2022-09-09T10:21:43.243Z,40.51
2022-09-09T10:22:43.513Z,41.31
2022-09-09T10:23:43.630Z,42.41
2022-09-09T10:24:43.802Z,41.43
2022-09-09T10:25:43.924Z,43.61
2022-09-09T10:26:44.106Z,42.33
2022-09-09T10:27:44.300Z,42.85
2022-09-09T10:28:44.483Z,42.67
2022-09-09T10:29:44.604Z,43.46
2022-09-09T10:30:44.868Z,43.08
2022-09-09T10:31:44.955Z,42.89
2022-09-09T10:32:45.166Z,43.20
2022-09-09T10:33:45.339Z,43.82
2022-09-09T10:34:45.516Z,44.51
2022-09-09T10:35:45.696Z,45.02
2022-09-09T10:36:45.890Z,44.92
2022-09-09T10:37:46.093Z,45.31
2022-09-09T10:38:46.240Z,46.52
2022-09-09T10:39:46.464Z,47.21
2022-09-09T10:40:46.586Z,46.74
2022-09-09T10:41:46.770Z,47.43
2022-09-09T10:42:46.977Z,47.33
2022-09-09T10:43:47.125Z,46.84
2022-09-09T10:44:47.310Z,47.53
2022-09-09T10:45:47.524Z,47.72
2022-09-09T10:46:47.677Z,48.02
2022-09-09T10:47:47.858Z,46.94
2022-09-09T10:48:48.015Z,46.74
2022-09-09T10:49:48.206Z,48.24
2022-09-09T10:51:05.101Z,48.63
2022-09-09T10:51:49.539Z,48.34
2022-09-09T10:52:48.736Z,47.75
2022-09-09T10:53:48.878Z,47.16
2022-09-09T10:54:49.069Z,47.35
2022-09-09T10:55:49.249Z,47.06
2022-09-09T10:56:49.445Z,46.88
2022-09-09T10:57:49.611Z,47.38
2022-09-09T10:58:49.779Z,46.88
2022-09-09T10:59:49.900Z,47.18
2022-09-09T11:00:52.049Z,48.93
2022-09-09T11:01:50.354Z,47.94
2022-09-09T11:02:50.439Z,46.26
2022-09-09T11:03:50.643Z,46.07
2022-09-09T11:04:50.809Z,46.56
2022-09-09T11:05:50.946Z,47.08
2022-09-09T11:06:51.131Z,47.97
2022-09-09T11:07:51.302Z,46.48
2022-09-09T11:08:53.823Z,45.89
2022-09-09T11:09:52.594Z,46.31
2022-09-09T11:10:51.781Z,46.41
2022-09-09T11:11:51.951Z,46.51
2022-09-09T11:12:52.161Z,46.61
2022-09-09T11:13:52.302Z,47.47
2022-09-09T11:14:52.494Z,47.47
2022-09-09T11:15:52.680Z,47.25
2022-09-09T11:16:52.895Z,47.35
2022-09-09T11:17:52.983Z,47.25
2022-09-09T11:18:53.163Z,46.54
2022-09-09T11:19:53.343Z,46.74
2022-09-09T11:20:53.534Z,46.15
2022-09-09T11:21:53.733Z,47.23
2022-09-09T11:22:53.919Z,45.83
2022-09-09T11:23:54.063Z,44.35
2022-09-09T11:24:54.244Z,44.57
2022-09-09T11:25:54.449Z,45.95
2022-09-09T11:26:54.638Z,46.34
2022-09-09T11:27:54.817Z,45.75
2022-09-09T11:28:54.987Z,45.95
2022-09-09T11:29:55.157Z,45.75
2022-09-09T11:30:56.946Z,45.46
2022-09-09T11:31:55.525Z,45.83
2022-09-09T11:32:55.664Z,45.53
2022-09-09T11:33:55.835Z,45.93
2022-09-09T11:34:56.044Z,46.22
2022-09-09T11:35:56.186Z,45.06
2022-09-09T11:36:56.395Z,44.57
2022-09-09T11:37:56.537Z,44.76
2022-09-09T11:38:56.737Z,45.08
2022-09-09T11:39:56.920Z,44.00
2022-09-09T11:40:57.076Z,44.00
2022-09-09T11:41:57.256Z,44.67
2022-09-09T11:42:57.439Z,43.86
2022-09-09T11:43:57.607Z,43.37
2022-09-09T11:44:57.786Z,43.76
2022-09-09T11:46:00.349Z,43.96
2022-09-09T11:46:58.179Z,44.65
2022-09-09T11:47:58.309Z,45.24
2022-09-09T11:48:58.488Z,44.35
2022-09-09T11:49:58.681Z,44.65
2022-09-09T11:50:58.849Z,44.65
2022-09-09T11:51:59.039Z,43.96
2022-09-09T11:52:59.249Z,44.45
2022-09-09T11:53:59.379Z,44.35
2022-09-09T11:54:59.577Z,44.35
2022-09-09T11:55:59.729Z,44.84
2022-09-09T11:56:59.916Z,44.35
2022-09-09T11:58:00.060Z,44.25
2022-09-09T11:59:00.234Z,44.47
2022-09-09T12:00:00.417Z,44.76
2022-09-09T12:01:00.591Z,44.47
2022-09-09T12:02:00.788Z,44.29
2022-09-09T12:03:00.931Z,45.48
2022-09-09T12:04:01.162Z,45.87
2022-09-09T12:05:01.333Z,46.07
2022-09-09T12:06:01.460Z,45.89
2022-09-09T12:07:01.675Z,45.40
2022-09-09T12:08:01.801Z,46.07
2022-09-09T12:09:01.983Z,45.67
2022-09-09T12:10:02.175Z,45.36
2022-09-09T12:11:02.342Z,44.76
2022-09-09T12:12:02.551Z,45.16
2022-09-09T12:13:02.722Z,45.06
2022-09-09T12:14:02.852Z,45.26
2022-09-09T12:15:03.042Z,45.43
2022-09-09T12:16:03.223Z,44.67
2022-09-09T12:17:03.453Z,44.57
2022-09-09T12:18:03.985Z,44.37
2022-09-09T12:19:03.804Z,44.07
2022-09-09T12:20:03.957Z,44.96
2022-09-09T12:21:04.134Z,44.20
2022-09-09T12:22:04.316Z,44.89
2022-09-09T12:23:04.493Z,45.08
2022-09-09T12:24:04.666Z,44.00
2022-09-09T12:25:04.877Z,43.13
2022-09-09T12:26:05.036Z,44.91
2022-09-09T12:27:05.714Z,44.49
2022-09-09T12:28:05.375Z,45.18
2022-09-09T12:29:05.557Z,44.69
2022-09-09T12:30:05.735Z,44.20
2022-09-09T12:31:05.973Z,43.70
2022-09-09T12:32:06.124Z,43.82
2022-09-09T12:33:06.266Z,44.39
2022-09-09T12:34:06.446Z,44.10
2022-09-09T12:35:06.677Z,44.89
2022-09-09T12:36:06.817Z,43.90
2022-09-09T12:37:07.021Z,43.31
2022-09-09T12:38:07.146Z,43.51
2022-09-09T12:39:07.328Z,43.70
2022-09-09T12:40:07.598Z,44.10
2022-09-09T12:41:07.688Z,43.41
2022-09-09T12:42:07.897Z,43.70
2022-09-09T12:43:08.085Z,43.90
2022-09-09T12:44:08.218Z,44.10
2022-09-09T12:45:08.399Z,43.90
2022-09-09T12:46:08.618Z,45.18
2022-09-09T12:47:08.758Z,44.20
2022-09-09T12:48:08.970Z,44.42
2022-09-09T12:49:09.180Z,44.02
2022-09-09T12:50:09.339Z,45.20
2022-09-09T12:51:09.507Z,45.50
2022-09-09T12:52:09.710Z,43.45
2022-09-09T12:53:09.880Z,44.46
2022-09-09T12:54:10.073Z,44.75
2022-09-09T12:55:10.250Z,44.56
2022-09-09T12:56:10.418Z,44.06
2022-09-09T12:57:10.628Z,44.65
2022-09-09T12:58:10.759Z,45.94